createdAt,value
2023-04-25T00:01:55.705Z,5.50
2023-04-25T00:05:00.246Z,6.30
2023-04-25T00:08:05.757Z,5.57
2023-04-25T00:11:09.024Z,6.75
2023-04-25T00:14:12.224Z,6.88
2023-04-25T00:17:15.938Z,7.15
2023-04-25T00:20:19.356Z,5.40
2023-04-25T00:23:24.920Z,6.68
2023-04-25T00:26:29.126Z,8.63
2023-04-25T00:29:32.309Z,7.28
2023-04-25T00:32:35.726Z,6.32
2023-04-25T00:35:39.297Z,6.32
2023-04-25T00:38:43.917Z,8.25
2023-04-25T00:41:47.528Z,6.38
2023-04-25T00:44:52.001Z,5.25
2023-04-25T00:47:56.477Z,8.40
2023-04-25T00:51:01.004Z,7.05
2023-04-25T00:54:05.696Z,6.82
2023-04-25T00:57:09.298Z,7.05
2023-04-25T01:00:14.326Z,6.15
2023-04-25T01:03:20.764Z,7.40
2023-04-25T01:06:24.402Z,6.55
2023-04-25T01:09:29.694Z,7.18
2023-04-25T01:12:32.936Z,6.88
2023-04-25T01:15:36.919Z,6.43
2023-04-25T01:18:41.271Z,7.85
2023-04-25T01:21:46.866Z,9.57
2023-04-25T01:24:50.778Z,6.97
2023-04-25T01:27:54.347Z,6.70
2023-04-25T01:30:58.855Z,7.15
2023-04-25T01:34:02.200Z,6.88
2023-04-25T01:37:07.341Z,7.43
2023-04-25T01:40:12.361Z,5.57
2023-04-25T01:43:16.015Z,6.07
2023-04-25T01:46:19.388Z,7.00
2023-04-25T01:49:24.702Z,6.97
2023-04-25T01:52:29.338Z,6.93
2023-04-25T01:55:33.587Z,7.45
2023-04-25T01:58:44.635Z,7.22
2023-04-25T02:02:08.187Z,7.25
2023-04-25T02:05:12.957Z,7.53
2023-04-25T02:08:20.340Z,7.78
2023-04-25T02:11:23.600Z,6.22
2023-04-25T02:14:47.292Z,7.43
2023-04-25T02:18:23.227Z,7.07
2023-04-25T02:21:27.500Z,7.15
2023-04-25T02:24:32.856Z,7.97
2023-04-25T02:27:36.072Z,8.68
2023-04-25T02:30:41.334Z,7.07
2023-04-25T02:33:45.111Z,10.50
2023-04-25T02:36:48.310Z,8.45
2023-04-25T02:39:55.964Z,9.32
2023-04-25T02:42:59.238Z,9.45
2023-04-25T02:46:03.460Z,11.05
2023-04-25T02:49:07.069Z,9.65
2023-04-25T02:52:11.628Z,9.32
2023-04-25T02:55:16.558Z,11.38
2023-04-25T02:58:20.649Z,12.43
2023-04-25T03:01:26.871Z,10.80
2023-04-25T03:04:30.204Z,10.68
2023-04-25T03:07:33.438Z,11.77
2023-04-25T03:10:38.023Z,11.65
2023-04-25T03:13:43.439Z,12.02
2023-04-25T03:16:47.664Z,12.75
2023-04-25T03:19:50.825Z,12.95
2023-04-25T03:22:55.198Z,12.65
2023-04-25T03:25:59.805Z,11.93
2023-04-25T03:29:03.014Z,11.93
2023-04-25T03:34:51.658Z,11.25
2023-04-25T03:37:55.028Z,13.52
2023-04-25T03:41:04.347Z,15.43
2023-04-25T03:44:25.123Z,14.40
2023-04-25T03:47:28.674Z,12.27
2023-04-25T03:50:34.406Z,12.30
2023-04-25T03:53:38.039Z,13.15
2023-04-25T03:56:56.510Z,13.40
2023-04-25T04:00:04.456Z,10.93
2023-04-25T04:03:16.781Z,11.15
2023-04-25T04:06:22.099Z,12.23
2023-04-25T04:09:31.288Z,12.60
2023-04-25T04:12:36.462Z,11.52
2023-04-25T04:15:39.808Z,10.63
2023-04-25T04:18:43.312Z,10.25
2023-04-25T04:21:47.893Z,10.88
2023-04-25T04:24:51.586Z,12.75
2023-04-25T04:28:27.682Z,10.40
2023-04-25T04:31:38.749Z,12.40
2023-04-25T04:34:43.514Z,10.65
2023-04-25T04:37:51.519Z,9.40
2023-04-25T04:40:56.862Z,11.85
2023-04-25T04:44:17.337Z,11.57
2023-04-25T04:47:42.546Z,11.38
2023-04-25T04:50:55.761Z,9.85
2023-04-25T04:54:20.606Z,10.82
2023-04-25T04:57:47.183Z,11.50
2023-04-25T05:01:09.805Z,11.93
2023-04-25T05:04:31.540Z,11.73
2023-04-25T05:07:42.886Z,12.77
2023-04-25T05:11:23.238Z,12.93
2023-04-25T05:14:46.750Z,11.00
2023-04-25T05:18:08.742Z,10.23
2023-04-25T05:21:32.349Z,10.27
2023-04-25T05:25:06.547Z,12.65
2023-04-25T05:28:27.871Z,12.73
2023-04-25T05:31:50.188Z,11.07
2023-04-25T05:34:54.375Z,10.50
2023-04-25T05:38:13.574Z,11.65
2023-04-25T05:41:48.823Z,11.68
2023-04-25T05:45:16.326Z,11.10
2023-04-25T05:48:43.220Z,11.18
2023-04-25T05:51:57.982Z,12.02
2023-04-25T05:55:33.181Z,10.63
2023-04-25T05:58:39.702Z,12.27
2023-04-25T06:01:44.661Z,12.23
2023-04-25T06:04:48.114Z,11.73
2023-04-25T06:07:52.531Z,13.85
2023-04-25T06:10:55.843Z,10.13
2023-04-25T06:14:00.122Z,12.25
2023-04-25T06:17:07.502Z,10.13
2023-04-25T06:20:11.900Z,11.38
2023-04-25T06:23:17.132Z,12.65
2023-04-25T06:26:28.635Z,11.77
2023-04-25T06:29:31.843Z,10.48
2023-04-25T06:32:36.508Z,13.20
2023-04-25T06:35:40.679Z,12.77
2023-04-25T06:38:48.058Z,12.83
2023-04-25T06:41:51.595Z,13.80
2023-04-25T06:45:14.793Z,12.10
2023-04-25T06:48:19.807Z,15.57
2023-04-25T06:51:25.324Z,13.70
2023-04-25T06:54:30.806Z,13.65
2023-04-25T06:57:42.725Z,16.17
2023-04-25T07:01:12.055Z,14.93
2023-04-25T07:04:17.305Z,14.23
2023-04-25T07:07:30.724Z,13.95
2023-04-25T07:10:36.131Z,14.00
2023-04-25T07:13:40.295Z,16.65
2023-04-25T07:16:43.928Z,11.20
2023-04-25T07:19:49.028Z,11.68
2023-04-25T07:22:52.248Z,13.18
2023-04-25T07:25:56.832Z,10.38
2023-04-25T07:29:02.433Z,9.75
2023-04-25T07:32:06.124Z,10.93
2023-04-25T07:35:12.677Z,7.78
2023-04-25T07:38:15.970Z,7.25
2023-04-25T07:41:19.486Z,7.22
2023-04-25T07:44:23.297Z,6.93
2023-04-25T07:47:26.798Z,6.10
2023-04-25T07:50:31.783Z,6.10
2023-04-25T07:53:36.718Z,9.15
2023-04-25T07:56:52.224Z,8.15
2023-04-25T07:59:57.142Z,9.52
2023-04-25T08:03:00.736Z,8.80
2023-04-25T08:06:08.183Z,9.77
2023-04-25T08:09:18.698Z,9.05
2023-04-25T08:12:23.552Z,7.30
2023-04-25T08:15:27.694Z,9.07
2023-04-25T08:18:31.818Z,9.23
2023-04-25T08:21:36.801Z,6.63
2023-04-25T08:27:46.735Z,7.38
2023-04-25T08:30:50.161Z,7.25
2023-04-25T08:33:54.730Z,7.10
2023-04-25T08:37:07.186Z,9.00
2023-04-25T08:40:17.751Z,7.93
2023-04-25T08:43:21.986Z,6.63
2023-04-25T08:46:25.819Z,8.65
2023-04-25T08:49:48.102Z,6.15
2023-04-25T08:52:56.368Z,9.82
2023-04-25T08:56:02.656Z,23.77
2023-04-25T08:59:08.957Z,9.25
2023-04-25T09:02:15.630Z,7.97
2023-04-25T09:05:21.748Z,7.13
2023-04-25T09:08:30.096Z,9.18
2023-04-25T09:11:34.554Z,9.85
2023-04-25T09:14:41.404Z,8.88
2023-04-25T09:17:58.568Z,8.55
2023-04-25T09:21:14.190Z,8.63
2023-04-25T09:24:35.393Z,11.43
2023-04-25T09:27:50.877Z,10.33
2023-04-25T09:34:52.984Z,9.57
2023-04-25T09:37:58.114Z,8.83
2023-04-25T09:41:25.548Z,8.30
2023-04-25T09:44:30.994Z,8.27
2023-04-25T09:47:39.741Z,9.32
2023-04-25T09:50:46.320Z,8.98
2023-04-25T09:53:52.182Z,8.20
2023-04-25T09:57:18.169Z,6.95
2023-04-25T10:00:23.402Z,9.00
2023-04-25T10:03:27.907Z,10.20
2023-04-25T10:06:46.013Z,8.73
2023-04-25T10:09:51.778Z,9.38
2023-04-25T10:12:56.179Z,11.65
2023-04-25T10:15:59.781Z,10.13
2023-04-25T10:19:04.037Z,7.40
2023-04-25T10:22:16.838Z,8.30
2023-04-25T10:25:20.370Z,9.48
2023-04-25T10:28:23.539Z,8.93
2023-04-25T10:31:26.941Z,9.07
2023-04-25T10:34:41.874Z,8.13
2023-04-25T10:38:01.237Z,8.40
2023-04-25T10:41:09.950Z,6.30
2023-04-25T10:44:13.697Z,8.20
2023-04-25T10:47:36.954Z,8.35
2023-04-25T10:50:41.454Z,6.50
2023-04-25T10:53:48.012Z,9.98
2023-04-25T10:56:54.182Z,8.82
2023-04-25T11:00:01.378Z,4.80
2023-04-25T11:03:05.997Z,3.30
2023-04-25T11:06:17.516Z,4.43
2023-04-25T11:09:26.257Z,7.97
2023-04-25T11:12:29.525Z,5.70
2023-04-25T11:15:32.832Z,4.97
2023-04-25T11:18:36.153Z,4.43
2023-04-25T11:21:39.504Z,3.95
2023-04-25T11:24:44.142Z,3.95
2023-04-25T11:27:54.004Z,3.72
2023-04-25T11:30:58.034Z,5.05
2023-04-25T11:34:01.602Z,2.38
2023-04-25T11:37:05.256Z,2.53
2023-04-25T11:40:12.487Z,2.47
2023-04-25T11:43:16.357Z,2.88
2023-04-25T11:46:21.163Z,2.28
2023-04-25T11:49:25.870Z,4.20
2023-04-25T11:52:41.391Z,3.40
2023-04-25T11:55:46.267Z,4.93
2023-04-25T11:59:07.988Z,2.00
2023-04-25T12:02:12.503Z,5.13
2023-04-25T12:05:31.195Z,3.05
2023-04-25T12:08:35.905Z,1.60
2023-04-25T12:11:47.919Z,2.70
2023-04-25T12:14:51.204Z,1.65
2023-04-25T12:17:56.209Z,1.55
2023-04-25T12:21:01.040Z,2.58
2023-04-25T12:24:13.297Z,1.60
2023-04-25T12:27:19.638Z,2.95
2023-04-25T12:30:23.034Z,1.65
2023-04-25T12:33:27.109Z,3.30
2023-04-25T12:36:30.269Z,1.70
2023-04-25T12:39:33.594Z,2.30
2023-04-25T12:42:38.189Z,2.08
2023-04-25T12:45:41.849Z,1.92
2023-04-25T12:48:45.068Z,2.47
2023-04-25T12:51:49.015Z,3.65
2023-04-25T12:54:52.322Z,3.85
2023-04-25T12:57:56.916Z,3.13
2023-04-25T13:01:00.182Z,3.38
2023-04-25T13:04:03.581Z,3.33
2023-04-25T13:07:07.195Z,2.00
2023-04-25T13:10:11.626Z,2.97
2023-04-25T13:13:17.506Z,2.35
2023-04-25T13:16:21.982Z,3.00
2023-04-25T13:19:26.607Z,3.92
2023-04-25T13:22:29.989Z,5.40
2023-04-25T13:25:33.341Z,2.42
2023-04-25T13:28:37.975Z,2.60
2023-04-25T13:31:41.293Z,2.92
2023-04-25T13:34:44.526Z,2.50
2023-04-25T13:37:47.795Z,2.88
2023-04-25T13:40:53.116Z,2.30
2023-04-25T13:43:57.707Z,3.58
2023-04-25T13:47:01.848Z,3.75
2023-04-25T13:50:11.761Z,3.83
2023-04-25T13:53:15.488Z,3.75
2023-04-25T13:56:20.583Z,3.58
2023-04-25T13:59:25.109Z,2.45
2023-04-25T14:02:28.393Z,5.47
2023-04-25T14:05:31.763Z,6.10
2023-04-25T14:08:34.940Z,3.72
2023-04-25T14:11:38.486Z,3.67
2023-04-25T14:14:43.052Z,3.50
2023-04-25T14:17:46.850Z,4.63
2023-04-25T14:20:50.226Z,4.68
2023-04-25T14:23:53.775Z,4.70
2023-04-25T14:26:57.792Z,4.10
2023-04-25T14:30:02.476Z,5.05
2023-04-25T14:33:06.230Z,4.47
2023-04-25T14:36:09.612Z,6.60
2023-04-25T14:39:13.493Z,5.45
2023-04-25T14:42:17.085Z,4.03
2023-04-25T14:45:21.974Z,4.07
2023-04-25T14:48:25.575Z,3.60
2023-04-25T14:51:28.961Z,13.75
2023-04-25T14:54:32.246Z,4.65
2023-04-25T14:57:35.996Z,4.35
2023-04-25T15:00:41.432Z,3.63
2023-04-25T15:03:44.904Z,5.57
2023-04-25T15:06:48.229Z,3.78
2023-04-25T15:09:53.957Z,5.43
2023-04-25T15:12:57.163Z,5.32
2023-04-25T15:16:01.974Z,5.88
2023-04-25T15:19:05.200Z,5.10
2023-04-25T15:22:08.546Z,4.10
2023-04-25T15:25:12.705Z,6.38
2023-04-25T15:28:16.774Z,4.07
2023-04-25T15:34:54.644Z,8.10
2023-04-25T15:41:00.940Z,5.10
2023-04-25T15:44:04.268Z,5.68
2023-04-25T15:47:07.976Z,6.93
2023-04-25T15:50:17.200Z,4.43
2023-04-25T15:53:20.512Z,5.53
2023-04-25T15:56:24.079Z,5.38
2023-04-25T15:59:27.457Z,6.63
2023-04-25T16:02:31.805Z,5.68
2023-04-25T16:05:36.562Z,5.70
2023-04-25T16:08:39.996Z,6.45
2023-04-25T16:11:43.317Z,6.60
2023-04-25T16:14:46.512Z,4.03
2023-04-25T16:17:50.070Z,4.53
2023-04-25T16:20:54.844Z,7.05
2023-04-25T16:23:58.322Z,3.90
2023-04-25T16:27:02.904Z,6.13
2023-04-25T16:30:08.174Z,8.18
2023-04-25T16:33:11.898Z,4.40
2023-04-25T16:36:16.564Z,4.35
2023-04-25T16:39:21.999Z,3.13
2023-04-25T16:42:25.783Z,4.45
2023-04-25T16:45:28.966Z,5.43
2023-04-25T16:48:32.214Z,5.00
2023-04-25T16:51:37.077Z,7.00
2023-04-25T16:54:40.449Z,3.42
2023-04-25T16:57:43.668Z,6.10
2023-04-25T17:00:47.810Z,6.57
2023-04-25T17:03:51.896Z,5.15
2023-04-25T17:06:57.473Z,3.78
2023-04-25T17:10:01.170Z,9.05
2023-04-25T17:13:04.542Z,3.33
2023-04-25T17:16:10.851Z,3.95
2023-04-25T17:19:14.080Z,5.55
2023-04-25T17:22:18.626Z,6.78
2023-04-25T17:25:21.838Z,4.07
2023-04-25T17:28:25.031Z,6.85
2023-04-25T17:31:28.346Z,4.38
2023-04-25T17:34:31.868Z,6.57
2023-04-25T17:37:36.486Z,6.45
2023-04-25T17:40:39.971Z,8.15
2023-04-25T17:43:43.176Z,5.40
2023-04-25T17:46:46.420Z,3.35
2023-04-25T17:49:49.877Z,8.85
2023-04-25T17:52:57.130Z,7.90
2023-04-25T17:56:00.487Z,6.15
2023-04-25T17:59:04.653Z,5.45
2023-04-25T18:02:08.825Z,4.22
2023-04-25T18:05:12.282Z,5.75
2023-04-25T18:08:16.969Z,8.13
2023-04-25T18:11:20.645Z,5.30
2023-04-25T18:14:25.014Z,8.30
2023-04-25T18:17:28.411Z,8.90
2023-04-25T18:20:31.743Z,4.75
2023-04-25T18:23:37.770Z,4.95
2023-04-25T18:26:42.060Z,9.82
2023-04-25T18:29:45.543Z,7.20
2023-04-25T18:32:48.817Z,11.43
2023-04-25T18:42:07.090Z,6.15
2023-04-25T18:45:11.729Z,8.57
2023-04-25T18:48:15.024Z,3.85
2023-04-25T18:51:18.469Z,6.63
2023-04-25T18:54:23.008Z,7.25
2023-04-25T18:57:26.462Z,4.38
2023-04-25T19:00:29.734Z,7.60
2023-04-25T19:03:33.234Z,4.85
2023-04-25T19:06:36.821Z,7.28
2023-04-25T19:09:41.589Z,5.68
2023-04-25T19:12:44.742Z,4.45
2023-04-25T19:15:48.352Z,7.32
2023-04-25T19:18:52.813Z,6.90
2023-04-25T19:21:56.587Z,7.13
2023-04-25T19:25:09.872Z,5.03
2023-04-25T19:28:15.428Z,6.72
2023-04-25T19:31:19.030Z,5.50
2023-04-25T19:34:22.286Z,7.63
2023-04-25T19:37:25.472Z,9.00
2023-04-25T19:40:30.226Z,6.63
2023-04-25T19:43:33.523Z,9.20
2023-04-25T19:46:38.075Z,6.30
2023-04-25T19:49:42.164Z,10.15
2023-04-25T19:52:45.392Z,9.07
2023-04-25T19:55:49.921Z,8.48
2023-04-25T19:58:53.385Z,7.93
2023-04-25T20:01:57.273Z,8.15
2023-04-25T20:05:01.294Z,5.50
2023-04-25T20:08:04.715Z,7.65
2023-04-25T20:11:09.409Z,5.90
2023-04-25T20:14:12.736Z,7.57
2023-04-25T20:17:16.054Z,8.50
2023-04-25T20:20:19.308Z,5.93
2023-04-25T20:23:22.756Z,9.05
2023-04-25T20:26:27.248Z,8.43
2023-04-25T20:29:30.441Z,7.18
2023-04-25T20:32:34.250Z,11.02
2023-04-25T20:35:37.533Z,6.07
2023-04-25T20:38:40.686Z,7.35
2023-04-25T20:41:45.718Z,6.45
2023-04-25T20:44:49.119Z,9.20
2023-04-25T20:47:52.397Z,7.82
2023-04-25T20:50:56.360Z,5.35
2023-04-25T20:54:00.212Z,6.07
2023-04-25T20:57:04.800Z,8.10
2023-04-25T21:00:16.651Z,9.70
2023-04-25T21:03:20.794Z,7.03
2023-04-25T21:06:24.240Z,6.47
2023-04-25T21:09:27.545Z,7.63
2023-04-25T21:12:32.097Z,14.82
2023-04-25T21:15:35.635Z,9.25
2023-04-25T21:18:38.904Z,8.82
2023-04-25T21:21:42.623Z,7.57
2023-04-25T21:24:47.622Z,7.18
2023-04-25T21:27:53.700Z,8.63
2023-04-25T21:34:51.401Z,7.93
2023-04-25T21:37:54.690Z,14.63
2023-04-25T21:40:58.076Z,9.75
2023-04-25T21:44:01.377Z,8.70
2023-04-25T21:47:05.531Z,6.97
2023-04-25T21:50:12.334Z,8.00
2023-04-25T21:53:15.866Z,9.02
2023-04-25T21:56:19.105Z,11.13
2023-04-25T21:59:24.950Z,10.00
2023-04-25T22:02:29.713Z,11.32
2023-04-25T22:05:35.027Z,14.27
2023-04-25T22:08:38.449Z,10.85
2023-04-25T22:11:43.013Z,10.88
2023-04-25T22:14:46.655Z,12.65
2023-04-25T22:17:52.258Z,13.60
2023-04-25T22:20:57.393Z,11.38
2023-04-25T22:24:00.676Z,8.45
2023-04-25T22:27:03.981Z,8.80
2023-04-25T22:30:09.328Z,7.72
2023-04-25T22:33:14.705Z,9.02
2023-04-25T22:36:19.612Z,10.07
2023-04-25T22:39:23.460Z,8.95
2023-04-25T22:42:26.842Z,8.98
2023-04-25T22:45:30.189Z,7.68
2023-04-25T22:48:33.677Z,11.77
2023-04-25T22:51:38.785Z,15.05
2023-04-25T22:54:42.304Z,12.00
2023-04-25T22:57:45.615Z,12.00
2023-04-25T23:00:50.911Z,12.13
2023-04-25T23:03:54.533Z,12.50
2023-04-25T23:07:00.200Z,13.13
2023-04-25T23:10:03.519Z,14.48
2023-04-25T23:13:06.812Z,15.18
2023-04-25T23:16:11.608Z,12.85
2023-04-25T23:19:14.863Z,12.32
2023-04-25T23:22:19.444Z,9.40
2023-04-25T23:25:23.191Z,9.23
2023-04-25T23:28:26.526Z,9.80
2023-04-25T23:31:30.260Z,11.52
2023-04-25T23:34:33.772Z,9.38
2023-04-25T23:37:39.412Z,9.13
2023-04-25T23:40:43.321Z,9.85
2023-04-25T23:43:46.588Z,10.05
2023-04-25T23:46:50.270Z,13.48
2023-04-25T23:49:53.903Z,15.02
2023-04-25T23:52:58.660Z,14.80
2023-04-25T23:56:01.914Z,8.73
2023-04-25T23:59:05.616Z,10.15
